Timeline UpdatesTrip UpdatesNews PostsPvt Posts♥♥Travel TipsAdmin PostsConv PostsFollowed PostsChat RequestsBlog PostsPNR Posts

Disclaimer
Search
 
 
Wed Nov 26, 2014 10:47:43 ISTHomeTrainsΣChainsAtlasPNRForumGalleryNewsFAQTripsMembersLoginFeedback
PNR Super Search

Ticket PNR Status Inquiry - PNR: 433-xxxxxxx (E-Ticket)

OLD STATUS

Status Last Updated on: Jun 01 2012 (6:00PM) IST

Date of Journey: Fri Jun 01, 2012   Class: AC 2-tier - 2A   (Total Seats available for this Class/Quota: Avbl >2)
Passenger 1: A1,33 (Booking Status: W/L 5,RLGN)
Chart PREPARED

Mysore-Ajmer Express/16210

Travel Time: 12h 0m    12 halts    Distance: 630 km    Avg Speed: 52 km/hr
Type: Mail/Express
Zone: SWR/South Western
Departs @ 18:50
Platform# 3
   W F 
Pune Junction/PUNE 
Arrives @ 06:50 +1 night
Platform# 6
    T S
Ahmedabad Junction/ADI 

12 halts. 125 intermediate Stations between Pune Junction and Ahmedabad Junction

Show ALL intermediate Stations  Show Old Time-Table

#TrkCodeStation NameX/OArrivesAvgDepartsAvgHaltPFDay#KmSpeedElevZoneAddress
1|==|MYSMysore Junction (6)  -18:15-51-1165.970760mSWRMysuru Tel No 0821-2521751, Karnataka
2%==%MYAMandya (3)  18:53-18:55-2m--1-1121.754672mSWRMandya, Karnataka
3%==%RMGMRamanagaram (4)X  19:49-19:50-1m21-1073.127692mSWRRamanagaram, Karnataka
4/==/SBCBangalore City Junction (10)  21:30-21:50-20m81-1028.726903mSWRBengaluru-560023, Karnataka
5/==%YPRYesvantpur Junction (6)22:03-22:05-2m--1-1023.166919mSWRBengaluru 560022, Karnataka
6|==|TKTumkur (3)  23:03-23:05-2m11-959.171823mSWRTumkur, Karnataka
7|--|TTRTiptur (4)  00:05-00:06-1m22-888.139860mSWRTiptur, Karnataka
8|--|ASKArsikere Junction (3)X  00:45-00:50-5m--2-862.663816mSWRArsikere, Karnataka
9|==|RRBBirur Junction (3)X  01:33-01:35-2m--2-817.658802mSWRBirur, Karnataka
10|--|DVGDavangere (2)  03:32 03:33-03:35-3 2m--2-702.659598mSWRDavanagere, Karnataka
11|--|HRRHarihar (3)  03:48-03:50-2m--2-689.861553mSWRHarihar, Karnataka
12|--|RNRRanibennur (3)  04:13-04:15-2m--2-666.570583mSWRRanebennur, Karnataka
13|--|HVRHaveri (3)  04:43-04:45-2m--2-633.943558mSWRHaveri, Karnataka
14|--|UBLHubli Junction (5)  06:25 06:30-06:35-10 5m12-558.860640mSWRHubli - 580020, Karnataka
15|-=|DWRDharwad (4)  06:58 06:55-07:00-2 5m12-538.853737mSWRDharwad 580001, Karnataka
16|--|LDLonda Junction (3)  08:23 08:20-08:25-2 5m22-468.344643mSWRLonda, Karnataka
17|--|BGMBelgaum (3)  09:35-09:40-5m12-417.046752mSWRBelgaum 590001, Karnataka
18|--|MRJMiraj Junction (6)  12:40-12:45-5m12-279.637554mCRMiraj 416410, Maharashtra
19|--|SLISangli (3)  12:57-13:00-3m12-272.372559mCRSangli, Maharashtra
20|--|KRDKarad (3)  13:59 13:57-14:00-1 3m12-204.459597mCRDist- Satara., Maharashtra
21|--|STRSatara (3)  15:00-15:03-3m12-145.740637mCRSatara, Maharashtra
22/==/PUNEPune Junction (6)»  18:40-18:50-10m320.055556mCRPune 411001, Maharashtra
23/==/LNLLonavala (3)X  19:59-20:00-1m2263.636623mCRLonavala 410401, Maharashtra
24/==/KJTKarjat Junction (4)  20:49 20:48-20:50-1 2m2292.37657mCRKarjat, Maharashtra
25/==/KYNKalyan Junction (8)X  21:28 21:27-21:30-2 3m72139.12810mCRKalyan 421301, Maharashtra
26/==/BIRDBhiwandi Road (4)X  22:08-22:10-2m42157.14126mCRBhiwandi, Maharashtra
27/==/BSRVasai Road (7)  22:50-22:55-5m62184.4647mWRVasai 401202, Maharashtra
28/==/VAPIVapi (3)X  00:49 00:48-00:50-1 2m--3305.57527mWRVapi, Gujarat
29/==/BLValsad (3)X  01:15 01:11-01:16-1 5m23331.74615mWRValsad, Gujarat
30/==/STSurat (4)O  02:45-02:55-10m13400.47319mWRSurat 395001, Gujarat
31/==/BHBharuch Junction (5)X  03:45 03:44-03:46-1 2m33459.76519mWRBharuch, Gujarat
32/==/BRCVadodara Junction (7)X  04:51-05:01-10m23530.26736mWRVadodara 390005, Gujarat
33/==/ANNDAnand Junction (6)X  05:34 05:33-05:35-1 2m--3566.07444mWRAnand, Gujarat
34/==/NDNadiad Junction (4)X  05:51 05:50-05:52 05:54-1 4m--3584.54937mWRNadiad, Gujarat
35/==/ADIAhmedabad Junction (12)•X  06:50-07:05-15m63630.03351mWRAhmedabad, Gujarat
36|--|MSHMahesana Junction (6)  09:19 09:18-09:20-1 2m23703.04995mWRMehsana, Gujarat
37|-=!PNUPalanpur Junction (5)X  10:38 10:40-10:40 10:56-2 16m13768.064216mWRPalanpur, Gujarat
38!==!ABRAbu Road (3)X  11:45-11:55-10m23820.668264mNWRSirohi Dist, Rajasthan
39!==!SOHSirohi Road (2)  12:35 12:34-12:36-1 2m--3864.566369mNWRPindwara, Rajasthan
40|--|FAFalna (2)  13:27 13:26-13:28-1 2m13919.564282mNWRFalna, Rajasthan
41|--|MJMarwar Junction (4)  14:30-14:32-2m--3986.070267mNWRMarwar Junction, Rajasthan
42|--|SODSojat Road (2)  14:51 14:50-14:52-1 2m--31006.944295mNWRSojat Road, Rajasthan
43|--|BERBeawar (2)  16:23-16:25-2m--31073.448447mNWRBeawar, Rajasthan
44|==!AIIAjmer Junction (5)  17:30--331125.6-464mNWRPin: 305001, Rajasthan
Scroll to Top
Scroll to Bottom